Trelew/Rawson, Argentina
Current Conditions -  °F | °C
As of 9:00 AM on Sunday 23 Nov 2014 (Local Time) from SAVC Reporting Station
Scattered Clouds Scattered Clouds  
Wind Chill: 17°   Ceiling: Unl
Heat Index: 17°   Visibility: 6mi
Dew Point:   Wind: 14mph
Humidity: 48%   Direction: 270°W
Pressure: 29.53"   Gusts: NA
Location:  43.2°S, 65.27°W
Report Text: SAVC 231200Z 27012KT 9999 FEW045 SCT10017/06 Q1000
Loading
Personal Weather Stations






























Interactive Weather Map New forecast layout! Learn more

10-Day Weather Forecast

Advertisements
Track Severe Weather on mobile